sensor_id;sensor_type;location;lat;lon;timestamp;P1;durP1;ratioP1;P2;durP2;ratioP2
32347;SDS011;18821;44.800;10.326;2023-04-09T00:00:35;11.90;;;8.70;;
32347;SDS011;18821;44.800;10.326;2023-04-09T00:03:01;18.48;;;8.95;;
32347;SDS011;18821;44.800;10.326;2023-04-09T00:05:27;13.10;;;9.25;;
32347;SDS011;18821;44.800;10.326;2023-04-09T00:07:53;15.48;;;9.73;;
32347;SDS011;18821;44.800;10.326;2023-04-09T00:10:19;14.65;;;9.27;;
32347;SDS011;18821;44.800;10.326;2023-04-09T00:12:45;12.98;;;8.77;;
32347;SDS011;18821;44.800;10.326;2023-04-09T00:15:11;11.82;;;8.60;;
32347;SDS011;18821;44.800;10.326;2023-04-09T00:17:37;13.38;;;9.55;;
32347;SDS011;18821;44.800;10.326;2023-04-09T00:20:03;10.60;;;9.00;;
32347;SDS011;18821;44.800;10.326;2023-04-09T00:22:30;13.57;;;9.27;;
32347;SDS011;18821;44.800;10.326;2023-04-09T00:24:56;14.30;;;10.15;;
32347;SDS011;18821;44.800;10.326;2023-04-09T00:27:21;15.93;;;9.75;;
32347;SDS011;18821;44.800;10.326;2023-04-09T00:29:47;14.55;;;10.10;;
32347;SDS011;18821;44.800;10.326;2023-04-09T00:32:14;11.77;;;8.20;;
32347;SDS011;18821;44.800;10.326;2023-04-09T00:34:39;11.88;;;8.63;;
32347;SDS011;18821;44.800;10.326;2023-04-09T00:37:05;13.18;;;9.05;;
32347;SDS011;18821;44.800;10.326;2023-04-09T00:39:31;13.50;;;10.02;;
32347;SDS011;18821;44.800;10.326;2023-04-09T00:41:58;13.13;;;10.05;;
32347;SDS011;18821;44.800;10.326;2023-04-09T00:44:26;15.40;;;10.60;;
32347;SDS011;18821;44.800;10.326;2023-04-09T00:46:53;15.77;;;10.90;;
32347;SDS011;18821;44.800;10.326;2023-04-09T00:49:19;13.05;;;10.18;;
32347;SDS011;18821;44.800;10.326;2023-04-09T00:51:46;14.45;;;10.48;;
32347;SDS011;18821;44.800;10.326;2023-04-09T00:54:13;15.07;;;10.40;;
32347;SDS011;18821;44.800;10.326;2023-04-09T00:56:41;16.10;;;11.38;;
32347;SDS011;18821;44.800;10.326;2023-04-09T00:59:07;15.45;;;10.45;;
32347;SDS011;18821;44.800;10.326;2023-04-09T01:01:33;15.73;;;11.05;;
32347;SDS011;18821;44.800;10.326;2023-04-09T01:03:58;16.35;;;11.07;;
32347;SDS011;18821;44.800;10.326;2023-04-09T01:06:34;14.70;;;11.68;;
32347;SDS011;18821;44.800;10.326;2023-04-09T01:09:06;17.50;;;11.57;;
32347;SDS011;18821;44.800;10.326;2023-04-09T01:14:42;17.75;;;11.48;;
32347;SDS011;18821;44.800;10.326;2023-04-09T01:17:21;14.98;;;11.73;;
32347;SDS011;18821;44.800;10.326;2023-04-09T01:30:51;15.55;;;11.38;;
32347;SDS011;18821;44.800;10.326;2023-04-09T01:33:21;17.27;;;11.93;;
32347;SDS011;18821;44.800;10.326;2023-04-09T01:35:49;16.40;;;12.30;;
32347;SDS011;18821;44.800;10.326;2023-04-09T01:38:17;18.52;;;12.57;;
32347;SDS011;18821;44.800;10.326;2023-04-09T01:40:45;16.45;;;12.80;;
32347;SDS011;18821;44.800;10.326;2023-04-09T01:43:12;18.08;;;13.50;;
32347;SDS011;18821;44.800;10.326;2023-04-09T01:45:39;20.20;;;13.32;;
32347;SDS011;18821;44.800;10.326;2023-04-09T01:48:08;16.77;;;12.80;;
32347;SDS011;18821;44.800;10.326;2023-04-09T01:50:34;17.77;;;12.52;;
32347;SDS011;18821;44.800;10.326;2023-04-09T01:53:01;20.50;;;13.32;;
32347;SDS011;18821;44.800;10.326;2023-04-09T01:55:28;18.08;;;12.88;;
32347;SDS011;18821;44.800;10.326;2023-04-09T01:57:53;18.10;;;12.88;;
32347;SDS011;18821;44.800;10.326;2023-04-09T02:00:22;18.98;;;12.95;;
32347;SDS011;18821;44.800;10.326;2023-04-09T02:02:55;22.45;;;13.75;;
32347;SDS011;18821;44.800;10.326;2023-04-09T02:05:22;17.10;;;13.10;;
32347;SDS011;18821;44.800;10.326;2023-04-09T02:07:54;15.85;;;12.57;;
32347;SDS011;18821;44.800;10.326;2023-04-09T02:10:21;19.73;;;13.50;;
32347;SDS011;18821;44.800;10.326;2023-04-09T02:12:50;17.63;;;12.63;;
32347;SDS011;18821;44.800;10.326;2023-04-09T02:15:21;19.50;;;14.02;;
32347;SDS011;18821;44.800;10.326;2023-04-09T02:17:47;17.48;;;13.20;;
32347;SDS011;18821;44.800;10.326;2023-04-09T02:20:17;18.08;;;13.27;;
32347;SDS011;18821;44.800;10.326;2023-04-09T02:22:43;20.13;;;13.40;;
32347;SDS011;18821;44.800;10.326;2023-04-09T02:25:13;17.55;;;12.63;;
32347;SDS011;18821;44.800;10.326;2023-04-09T02:27:40;17.80;;;12.70;;
32347;SDS011;18821;44.800;10.326;2023-04-09T02:30:06;20.33;;;14.30;;
32347;SDS011;18821;44.800;10.326;2023-04-09T02:32:32;17.13;;;13.40;;
32347;SDS011;18821;44.800;10.326;2023-04-09T02:34:58;18.08;;;13.45;;
32347;SDS011;18821;44.800;10.326;2023-04-09T02:37:24;18.45;;;14.25;;
32347;SDS011;18821;44.800;10.326;2023-04-09T02:39:50;22.30;;;13.98;;
32347;SDS011;18821;44.800;10.326;2023-04-09T02:42:16;20.83;;;13.35;;
32347;SDS011;18821;44.800;10.326;2023-04-09T02:44:42;18.88;;;14.60;;
32347;SDS011;18821;44.800;10.326;2023-04-09T02:47:09;20.58;;;13.88;;
32347;SDS011;18821;44.800;10.326;2023-04-09T02:49:37;18.08;;;14.30;;
32347;SDS011;18821;44.800;10.326;2023-04-09T02:52:03;20.73;;;15.02;;
32347;SDS011;18821;44.800;10.326;2023-04-09T02:54:29;20.27;;;15.52;;
32347;SDS011;18821;44.800;10.326;2023-04-09T02:56:54;18.75;;;14.70;;
32347;SDS011;18821;44.800;10.326;2023-04-09T02:59:20;20.38;;;14.27;;
32347;SDS011;18821;44.800;10.326;2023-04-09T03:01:47;21.55;;;14.98;;
32347;SDS011;18821;44.800;10.326;2023-04-09T03:04:12;21.95;;;14.75;;
32347;SDS011;18821;44.800;10.326;2023-04-09T03:06:38;18.90;;;14.38;;
32347;SDS011;18821;44.800;10.326;2023-04-09T03:09:04;19.55;;;15.07;;
32347;SDS011;18821;44.800;10.326;2023-04-09T03:11:30;24.33;;;15.85;;
32347;SDS011;18821;44.800;10.326;2023-04-09T03:13:56;22.23;;;15.93;;
32347;SDS011;18821;44.800;10.326;2023-04-09T03:16:25;23.98;;;16.20;;
32347;SDS011;18821;44.800;10.326;2023-04-09T03:18:51;20.70;;;15.82;;
32347;SDS011;18821;44.800;10.326;2023-04-09T03:21:17;27.73;;;17.40;;
32347;SDS011;18821;44.800;10.326;2023-04-09T03:23:46;21.92;;;16.75;;
32347;SDS011;18821;44.800;10.326;2023-04-09T03:26:12;23.85;;;15.75;;
32347;SDS011;18821;44.800;10.326;2023-04-09T03:28:44;22.45;;;16.23;;
32347;SDS011;18821;44.800;10.326;2023-04-09T03:31:10;22.27;;;15.90;;
32347;SDS011;18821;44.800;10.326;2023-04-09T03:33:39;21.13;;;15.63;;
32347;SDS011;18821;44.800;10.326;2023-04-09T03:36:06;23.88;;;16.58;;
32347;SDS011;18821;44.800;10.326;2023-04-09T03:38:45;23.42;;;15.93;;
32347;SDS011;18821;44.800;10.326;2023-04-09T03:41:23;21.83;;;16.13;;
32347;SDS011;18821;44.800;10.326;2023-04-09T03:43:50;24.80;;;16.60;;
32347;SDS011;18821;44.800;10.326;2023-04-09T03:46:21;23.83;;;16.55;;
32347;SDS011;18821;44.800;10.326;2023-04-09T03:48:47;26.42;;;16.92;;
32347;SDS011;18821;44.800;10.326;2023-04-09T03:51:14;25.15;;;15.70;;
32347;SDS011;18821;44.800;10.326;2023-04-09T03:53:46;24.27;;;17.80;;
32347;SDS011;18821;44.800;10.326;2023-04-09T03:56:12;26.33;;;17.15;;
32347;SDS011;18821;44.800;10.326;2023-04-09T03:58:38;26.33;;;16.60;;
32347;SDS011;18821;44.800;10.326;2023-04-09T04:01:06;26.67;;;17.13;;
32347;SDS011;18821;44.800;10.326;2023-04-09T04:03:39;24.83;;;17.40;;
32347;SDS011;18821;44.800;10.326;2023-04-09T04:06:17;21.98;;;16.73;;
32347;SDS011;18821;44.800;10.326;2023-04-09T04:09:06;26.15;;;17.70;;
32347;SDS011;18821;44.800;10.326;2023-04-09T04:11:40;24.63;;;17.30;;
32347;SDS011;18821;44.800;10.326;2023-04-09T04:14:06;24.63;;;18.33;;
32347;SDS011;18821;44.800;10.326;2023-04-09T04:16:32;24.10;;;17.30;;
32347;SDS011;18821;44.800;10.326;2023-04-09T04:19:00;26.63;;;17.70;;
32347;SDS011;18821;44.800;10.326;2023-04-09T04:21:29;26.05;;;17.80;;
32347;SDS011;18821;44.800;10.326;2023-04-09T04:23:59;25.00;;;18.27;;
32347;SDS011;18821;44.800;10.326;2023-04-09T04:26:27;27.25;;;18.15;;
32347;SDS011;18821;44.800;10.326;2023-04-09T04:28:53;26.77;;;18.15;;
32347;SDS011;18821;44.800;10.326;2023-04-09T04:31:42;22.85;;;17.13;;
32347;SDS011;18821;44.800;10.326;2023-04-09T04:34:09;28.15;;;17.13;;
32347;SDS011;18821;44.800;10.326;2023-04-09T04:36:35;26.35;;;18.15;;
32347;SDS011;18821;44.800;10.326;2023-04-09T04:39:02;30.73;;;20.55;;
32347;SDS011;18821;44.800;10.326;2023-04-09T04:41:52;34.33;;;20.55;;
32347;SDS011;18821;44.800;10.326;2023-04-09T04:44:22;35.03;;;21.00;;
32347;SDS011;18821;44.800;10.326;2023-04-09T04:46:53;28.95;;;21.13;;
32347;SDS011;18821;44.800;10.326;2023-04-09T04:49:20;31.60;;;21.35;;
32347;SDS011;18821;44.800;10.326;2023-04-09T04:51:47;33.55;;;21.67;;
32347;SDS011;18821;44.800;10.326;2023-04-09T04:54:14;33.53;;;21.65;;
32347;SDS011;18821;44.800;10.326;2023-04-09T04:56:47;27.95;;;21.08;;
32347;SDS011;18821;44.800;10.326;2023-04-09T04:59:31;25.60;;;18.92;;
32347;SDS011;18821;44.800;10.326;2023-04-09T05:02:03;29.48;;;20.25;;
32347;SDS011;18821;44.800;10.326;2023-04-09T05:04:36;31.00;;;21.45;;
32347;SDS011;18821;44.800;10.326;2023-04-09T05:07:03;33.08;;;21.25;;
32347;SDS011;18821;44.800;10.326;2023-04-09T05:09:30;29.02;;;19.77;;
32347;SDS011;18821;44.800;10.326;2023-04-09T05:12:04;31.88;;;20.70;;
32347;SDS011;18821;44.800;10.326;2023-04-09T05:14:30;29.67;;;20.85;;
32347;SDS011;18821;44.800;10.326;2023-04-09T05:16:56;29.23;;;20.05;;
32347;SDS011;18821;44.800;10.326;2023-04-09T05:19:26;29.08;;;21.30;;
32347;SDS011;18821;44.800;10.326;2023-04-09T05:21:57;30.05;;;21.58;;
32347;SDS011;18821;44.800;10.326;2023-04-09T05:24:24;32.15;;;21.70;;
32347;SDS011;18821;44.800;10.326;2023-04-09T05:26:49;29.50;;;20.48;;
32347;SDS011;18821;44.800;10.326;2023-04-09T05:29:15;27.85;;;19.73;;
32347;SDS011;18821;44.800;10.326;2023-04-09T05:31:41;27.48;;;20.13;;
32347;SDS011;18821;44.800;10.326;2023-04-09T05:34:14;28.27;;;19.73;;
32347;SDS011;18821;44.800;10.326;2023-04-09T05:36:43;28.92;;;18.40;;
32347;SDS011;18821;44.800;10.326;2023-04-09T05:39:10;29.17;;;19.40;;
32347;SDS011;18821;44.800;10.326;2023-04-09T05:41:36;26.90;;;19.30;;
32347;SDS011;18821;44.800;10.326;2023-04-09T05:44:21;32.03;;;21.63;;
32347;SDS011;18821;44.800;10.326;2023-04-09T05:46:49;28.27;;;19.45;;
32347;SDS011;18821;44.800;10.326;2023-04-09T05:49:20;28.65;;;19.83;;
32347;SDS011;18821;44.800;10.326;2023-04-09T05:51:49;26.55;;;17.98;;
32347;SDS011;18821;44.800;10.326;2023-04-09T05:54:22;27.50;;;18.65;;
32347;SDS011;18821;44.800;10.326;2023-04-09T05:56:48;23.50;;;17.38;;
32347;SDS011;18821;44.800;10.326;2023-04-09T05:59:14;22.42;;;16.63;;
32347;SDS011;18821;44.800;10.326;2023-04-09T06:01:40;24.63;;;17.23;;
32347;SDS011;18821;44.800;10.326;2023-04-09T06:04:05;21.80;;;16.50;;
32347;SDS011;18821;44.800;10.326;2023-04-09T06:06:31;21.48;;;15.55;;
32347;SDS011;18821;44.800;10.326;2023-04-09T06:08:58;25.15;;;16.42;;
32347;SDS011;18821;44.800;10.326;2023-04-09T06:11:24;21.50;;;15.05;;
32347;SDS011;18821;44.800;10.326;2023-04-09T06:13:51;18.33;;;15.27;;
32347;SDS011;18821;44.800;10.326;2023-04-09T06:16:17;22.70;;;14.65;;
32347;SDS011;18821;44.800;10.326;2023-04-09T06:18:43;19.20;;;15.23;;
32347;SDS011;18821;44.800;10.326;2023-04-09T06:21:10;18.35;;;14.95;;
32347;SDS011;18821;44.800;10.326;2023-04-09T06:23:38;20.38;;;15.68;;
32347;SDS011;18821;44.800;10.326;2023-04-09T06:26:04;19.95;;;15.00;;
32347;SDS011;18821;44.800;10.326;2023-04-09T06:28:30;20.15;;;14.15;;
32347;SDS011;18821;44.800;10.326;2023-04-09T06:30:57;18.48;;;14.65;;
32347;SDS011;18821;44.800;10.326;2023-04-09T06:33:23;19.17;;;15.32;;
32347;SDS011;18821;44.800;10.326;2023-04-09T06:35:49;22.95;;;15.05;;
32347;SDS011;18821;44.800;10.326;2023-04-09T06:38:15;19.55;;;15.55;;
32347;SDS011;18821;44.800;10.326;2023-04-09T06:40:42;17.80;;;14.88;;
32347;SDS011;18821;44.800;10.326;2023-04-09T06:43:08;20.88;;;15.38;;
32347;SDS011;18821;44.800;10.326;2023-04-09T06:45:40;23.80;;;17.45;;
32347;SDS011;18821;44.800;10.326;2023-04-09T06:48:06;21.67;;;17.48;;
32347;SDS011;18821;44.800;10.326;2023-04-09T06:50:32;22.75;;;17.40;;
32347;SDS011;18821;44.800;10.326;2023-04-09T06:52:58;25.02;;;17.50;;
32347;SDS011;18821;44.800;10.326;2023-04-09T06:55:24;22.33;;;17.30;;
32347;SDS011;18821;44.800;10.326;2023-04-09T06:57:51;24.30;;;17.20;;
32347;SDS011;18821;44.800;10.326;2023-04-09T07:00:16;23.58;;;17.30;;
32347;SDS011;18821;44.800;10.326;2023-04-09T07:02:43;21.27;;;17.17;;
32347;SDS011;18821;44.800;10.326;2023-04-09T07:05:09;22.27;;;17.23;;
32347;SDS011;18821;44.800;10.326;2023-04-09T07:07:34;23.33;;;17.05;;
32347;SDS011;18821;44.800;10.326;2023-04-09T07:10:00;23.13;;;18.13;;
32347;SDS011;18821;44.800;10.326;2023-04-09T07:12:30;25.48;;;17.90;;
32347;SDS011;18821;44.800;10.326;2023-04-09T07:14:58;22.20;;;17.40;;
32347;SDS011;18821;44.800;10.326;2023-04-09T07:17:24;26.13;;;18.67;;
32347;SDS011;18821;44.800;10.326;2023-04-09T07:19:50;26.95;;;19.10;;
32347;SDS011;18821;44.800;10.326;2023-04-09T07:22:17;22.60;;;16.98;;
32347;SDS011;18821;44.800;10.326;2023-04-09T07:24:43;26.52;;;16.85;;
32347;SDS011;18821;44.800;10.326;2023-04-09T07:27:08;25.63;;;17.25;;
32347;SDS011;18821;44.800;10.326;2023-04-09T07:29:35;26.73;;;18.45;;
32347;SDS011;18821;44.800;10.326;2023-04-09T07:32:01;23.15;;;17.02;;
32347;SDS011;18821;44.800;10.326;2023-04-09T07:34:27;23.45;;;16.75;;
32347;SDS011;18821;44.800;10.326;2023-04-09T07:36:53;25.42;;;18.30;;
32347;SDS011;18821;44.800;10.326;2023-04-09T07:39:19;23.30;;;17.63;;
32347;SDS011;18821;44.800;10.326;2023-04-09T07:41:46;22.60;;;15.90;;
32347;SDS011;18821;44.800;10.326;2023-04-09T07:44:13;21.38;;;14.10;;
32347;SDS011;18821;44.800;10.326;2023-04-09T07:46:38;20.02;;;15.05;;
32347;SDS011;18821;44.800;10.326;2023-04-09T07:49:05;23.38;;;16.70;;
32347;SDS011;18821;44.800;10.326;2023-04-09T07:51:31;20.40;;;15.05;;
32347;SDS011;18821;44.800;10.326;2023-04-09T07:53:57;23.45;;;15.80;;
32347;SDS011;18821;44.800;10.326;2023-04-09T07:56:23;21.17;;;14.57;;
32347;SDS011;18821;44.800;10.326;2023-04-09T07:58:49;20.50;;;14.05;;
32347;SDS011;18821;44.800;10.326;2023-04-09T08:01:15;21.42;;;15.45;;
32347;SDS011;18821;44.800;10.326;2023-04-09T08:03:41;20.20;;;15.52;;
32347;SDS011;18821;44.800;10.326;2023-04-09T08:06:07;21.30;;;14.82;;
32347;SDS011;18821;44.800;10.326;2023-04-09T08:08:33;22.20;;;15.60;;
32347;SDS011;18821;44.800;10.326;2023-04-09T08:11:00;22.05;;;14.60;;
32347;SDS011;18821;44.800;10.326;2023-04-09T08:13:26;24.23;;;14.50;;
32347;SDS011;18821;44.800;10.326;2023-04-09T08:15:51;21.15;;;14.27;;
32347;SDS011;18821;44.800;10.326;2023-04-09T08:18:17;23.25;;;14.13;;
32347;SDS011;18821;44.800;10.326;2023-04-09T08:20:43;24.90;;;15.63;;
32347;SDS011;18821;44.800;10.326;2023-04-09T08:23:10;19.73;;;14.48;;
32347;SDS011;18821;44.800;10.326;2023-04-09T08:25:36;22.80;;;14.70;;
32347;SDS011;18821;44.800;10.326;2023-04-09T08:28:02;22.13;;;14.80;;
32347;SDS011;18821;44.800;10.326;2023-04-09T08:30:28;19.02;;;14.52;;
32347;SDS011;18821;44.800;10.326;2023-04-09T08:32:54;22.55;;;14.75;;
32347;SDS011;18821;44.800;10.326;2023-04-09T08:35:20;21.58;;;14.88;;
32347;SDS011;18821;44.800;10.326;2023-04-09T08:37:46;20.98;;;13.70;;
32347;SDS011;18821;44.800;10.326;2023-04-09T08:40:13;23.40;;;14.20;;
32347;SDS011;18821;44.800;10.326;2023-04-09T08:42:41;19.25;;;13.57;;
32347;SDS011;18821;44.800;10.326;2023-04-09T08:45:10;17.50;;;13.30;;
32347;SDS011;18821;44.800;10.326;2023-04-09T08:47:36;18.40;;;13.20;;
32347;SDS011;18821;44.800;10.326;2023-04-09T08:50:05;18.50;;;13.07;;
32347;SDS011;18821;44.800;10.326;2023-04-09T08:52:31;20.10;;;13.18;;
32347;SDS011;18821;44.800;10.326;2023-04-09T08:54:58;17.67;;;12.25;;
32347;SDS011;18821;44.800;10.326;2023-04-09T08:57:24;17.55;;;12.43;;
32347;SDS011;18821;44.800;10.326;2023-04-09T08:59:50;23.27;;;12.90;;
32347;SDS011;18821;44.800;10.326;2023-04-09T09:02:16;16.75;;;12.35;;
32347;SDS011;18821;44.800;10.326;2023-04-09T09:04:43;18.08;;;13.35;;
32347;SDS011;18821;44.800;10.326;2023-04-09T09:07:12;16.50;;;10.82;;
32347;SDS011;18821;44.800;10.326;2023-04-09T09:12:33;14.55;;;11.40;;
32347;SDS011;18821;44.800;10.326;2023-04-09T09:15:04;14.52;;;10.75;;
32347;SDS011;18821;44.800;10.326;2023-04-09T09:17:58;17.00;;;11.45;;
32347;SDS011;18821;44.800;10.326;2023-04-09T09:20:24;15.38;;;10.88;;
32347;SDS011;18821;44.800;10.326;2023-04-09T09:22:52;13.25;;;10.07;;
32347;SDS011;18821;44.800;10.326;2023-04-09T09:25:19;16.15;;;10.52;;
32347;SDS011;18821;44.800;10.326;2023-04-09T09:27:50;17.08;;;11.30;;
32347;SDS011;18821;44.800;10.326;2023-04-09T09:30:20;16.25;;;11.43;;
32347;SDS011;18821;44.800;10.326;2023-04-09T09:32:52;13.82;;;11.07;;
32347;SDS011;18821;44.800;10.326;2023-04-09T09:35:18;17.13;;;11.02;;
32347;SDS011;18821;44.800;10.326;2023-04-09T09:37:45;12.77;;;9.35;;
32347;SDS011;18821;44.800;10.326;2023-04-09T09:40:11;13.95;;;10.13;;
32347;SDS011;18821;44.800;10.326;2023-04-09T09:42:55;13.43;;;9.07;;
32347;SDS011;18821;44.800;10.326;2023-04-09T09:45:22;14.52;;;9.70;;
32347;SDS011;18821;44.800;10.326;2023-04-09T09:47:50;14.98;;;9.88;;
32347;SDS011;18821;44.800;10.326;2023-04-09T09:50:17;14.15;;;10.73;;
32347;SDS011;18821;44.800;10.326;2023-04-09T09:52:44;13.65;;;10.48;;
32347;SDS011;18821;44.800;10.326;2023-04-09T09:55:14;17.58;;;8.55;;
32347;SDS011;18821;44.800;10.326;2023-04-09T09:57:43;17.63;;;9.90;;
32347;SDS011;18821;44.800;10.326;2023-04-09T10:00:11;17.73;;;8.88;;
32347;SDS011;18821;44.800;10.326;2023-04-09T10:03:24;13.40;;;8.75;;
32347;SDS011;18821;44.800;10.326;2023-04-09T10:05:35;13.90;;;9.77;;
32347;SDS011;18821;44.800;10.326;2023-04-09T10:08:03;14.45;;;9.57;;
32347;SDS011;18821;44.800;10.326;2023-04-09T10:10:29;12.82;;;9.48;;
32347;SDS011;18821;44.800;10.326;2023-04-09T10:12:55;13.30;;;8.88;;
32347;SDS011;18821;44.800;10.326;2023-04-09T10:15:22;13.63;;;8.02;;
32347;SDS011;18821;44.800;10.326;2023-04-09T10:17:48;12.48;;;9.10;;
32347;SDS011;18821;44.800;10.326;2023-04-09T10:20:17;10.55;;;8.13;;
32347;SDS011;18821;44.800;10.326;2023-04-09T10:22:48;13.52;;;8.75;;
32347;SDS011;18821;44.800;10.326;2023-04-09T10:25:16;12.00;;;8.25;;
32347;SDS011;18821;44.800;10.326;2023-04-09T10:27:42;11.70;;;8.43;;
32347;SDS011;18821;44.800;10.326;2023-04-09T10:33:35;11.73;;;7.50;;
32347;SDS011;18821;44.800;10.326;2023-04-09T10:35:54;10.70;;;7.78;;
32347;SDS011;18821;44.800;10.326;2023-04-09T10:38:45;9.82;;;8.27;;
32347;SDS011;18821;44.800;10.326;2023-04-09T10:41:14;12.13;;;7.45;;
32347;SDS011;18821;44.800;10.326;2023-04-09T10:43:46;14.00;;;8.55;;
32347;SDS011;18821;44.800;10.326;2023-04-09T10:46:26;10.90;;;7.68;;
32347;SDS011;18821;44.800;10.326;2023-04-09T10:49:07;14.85;;;7.55;;
32347;SDS011;18821;44.800;10.326;2023-04-09T10:51:38;9.43;;;7.00;;
32347;SDS011;18821;44.800;10.326;2023-04-09T10:54:05;11.98;;;7.05;;
32347;SDS011;18821;44.800;10.326;2023-04-09T11:00:08;11.88;;;6.70;;
32347;SDS011;18821;44.800;10.326;2023-04-09T11:07:54;7.25;;;5.95;;
32347;SDS011;18821;44.800;10.326;2023-04-09T11:10:27;11.13;;;6.80;;
32347;SDS011;18821;44.800;10.326;2023-04-09T11:12:53;8.27;;;6.53;;
32347;SDS011;18821;44.800;10.326;2023-04-09T11:15:19;7.90;;;5.32;;
32347;SDS011;18821;44.800;10.326;2023-04-09T11:17:46;8.23;;;5.50;;
32347;SDS011;18821;44.800;10.326;2023-04-09T11:20:13;10.20;;;6.07;;
32347;SDS011;18821;44.800;10.326;2023-04-09T11:22:40;7.50;;;5.65;;
32347;SDS011;18821;44.800;10.326;2023-04-09T11:25:06;11.38;;;6.18;;
32347;SDS011;18821;44.800;10.326;2023-04-09T11:27:42;9.40;;;5.70;;
32347;SDS011;18821;44.800;10.326;2023-04-09T11:30:09;8.82;;;5.78;;
32347;SDS011;18821;44.800;10.326;2023-04-09T11:32:35;9.45;;;5.43;;
32347;SDS011;18821;44.800;10.326;2023-04-09T11:35:01;12.20;;;5.88;;
32347;SDS011;18821;44.800;10.326;2023-04-09T11:37:28;5.75;;;5.07;;
32347;SDS011;18821;44.800;10.326;2023-04-09T11:39:54;8.13;;;5.60;;
32347;SDS011;18821;44.800;10.326;2023-04-09T11:42:21;17.92;;;6.32;;
32347;SDS011;18821;44.800;10.326;2023-04-09T11:44:48;8.52;;;5.68;;
32347;SDS011;18821;44.800;10.326;2023-04-09T11:47:14;7.63;;;5.22;;
32347;SDS011;18821;44.800;10.326;2023-04-09T11:49:41;6.57;;;5.60;;
32347;SDS011;18821;44.800;10.326;2023-04-09T11:52:08;8.43;;;4.43;;
32347;SDS011;18821;44.800;10.326;2023-04-09T11:54:35;6.55;;;4.82;;
32347;SDS011;18821;44.800;10.326;2023-04-09T11:57:04;6.53;;;4.85;;
32347;SDS011;18821;44.800;10.326;2023-04-09T11:59:30;7.70;;;4.93;;
32347;SDS011;18821;44.800;10.326;2023-04-09T12:01:57;7.00;;;4.55;;
32347;SDS011;18821;44.800;10.326;2023-04-09T12:04:23;6.95;;;5.20;;
32347;SDS011;18821;44.800;10.326;2023-04-09T12:06:49;6.75;;;5.30;;
32347;SDS011;18821;44.800;10.326;2023-04-09T12:09:16;7.07;;;5.07;;
32347;SDS011;18821;44.800;10.326;2023-04-09T12:11:42;7.75;;;4.82;;
32347;SDS011;18821;44.800;10.326;2023-04-09T12:14:12;6.55;;;4.60;;
32347;SDS011;18821;44.800;10.326;2023-04-09T12:16:41;7.80;;;5.65;;
32347;SDS011;18821;44.800;10.326;2023-04-09T12:19:10;9.43;;;4.75;;
32347;SDS011;18821;44.800;10.326;2023-04-09T12:21:47;5.32;;;4.40;;
32347;SDS011;18821;44.800;10.326;2023-04-09T12:24:14;5.70;;;4.10;;
32347;SDS011;18821;44.800;10.326;2023-04-09T12:26:44;5.63;;;4.32;;
32347;SDS011;18821;44.800;10.326;2023-04-09T12:29:11;10.95;;;4.75;;
32347;SDS011;18821;44.800;10.326;2023-04-09T12:31:39;7.00;;;5.03;;
32347;SDS011;18821;44.800;10.326;2023-04-09T12:34:05;8.10;;;4.97;;
32347;SDS011;18821;44.800;10.326;2023-04-09T12:36:31;6.97;;;4.90;;
32347;SDS011;18821;44.800;10.326;2023-04-09T12:38:57;6.80;;;4.45;;
32347;SDS011;18821;44.800;10.326;2023-04-09T12:41:23;6.60;;;4.60;;
32347;SDS011;18821;44.800;10.326;2023-04-09T12:43:49;6.00;;;4.10;;
32347;SDS011;18821;44.800;10.326;2023-04-09T12:46:16;5.93;;;4.07;;
32347;SDS011;18821;44.800;10.326;2023-04-09T12:48:42;12.32;;;4.97;;
32347;SDS011;18821;44.800;10.326;2023-04-09T12:51:08;5.88;;;4.45;;
32347;SDS011;18821;44.800;10.326;2023-04-09T12:53:35;8.45;;;4.30;;
32347;SDS011;18821;44.800;10.326;2023-04-09T12:56:01;7.38;;;4.30;;
32347;SDS011;18821;44.800;10.326;2023-04-09T12:58:27;6.00;;;4.13;;
32347;SDS011;18821;44.800;10.326;2023-04-09T13:00:53;7.20;;;4.10;;
32347;SDS011;18821;44.800;10.326;2023-04-09T13:03:21;5.03;;;3.53;;
32347;SDS011;18821;44.800;10.326;2023-04-09T13:05:47;7.10;;;4.10;;
32347;SDS011;18821;44.800;10.326;2023-04-09T13:08:14;8.25;;;4.60;;
32347;SDS011;18821;44.800;10.326;2023-04-09T13:10:40;7.20;;;4.55;;
32347;SDS011;18821;44.800;10.326;2023-04-09T13:13:06;5.95;;;4.22;;
32347;SDS011;18821;44.800;10.326;2023-04-09T13:15:36;7.82;;;3.95;;
32347;SDS011;18821;44.800;10.326;2023-04-09T13:18:10;4.50;;;3.50;;
32347;SDS011;18821;44.800;10.326;2023-04-09T13:20:39;5.43;;;4.03;;
32347;SDS011;18821;44.800;10.326;2023-04-09T13:23:05;5.18;;;3.47;;
32347;SDS011;18821;44.800;10.326;2023-04-09T13:25:31;6.18;;;4.10;;
32347;SDS011;18821;44.800;10.326;2023-04-09T13:27:57;5.40;;;3.65;;
32347;SDS011;18821;44.800;10.326;2023-04-09T13:30:23;4.65;;;3.47;;
32347;SDS011;18821;44.800;10.326;2023-04-09T13:32:49;4.72;;;3.58;;
32347;SDS011;18821;44.800;10.326;2023-04-09T13:35:15;5.20;;;3.38;;
32347;SDS011;18821;44.800;10.326;2023-04-09T13:37:41;4.60;;;3.33;;
32347;SDS011;18821;44.800;10.326;2023-04-09T13:40:07;5.50;;;2.90;;
32347;SDS011;18821;44.800;10.326;2023-04-09T13:42:33;5.45;;;3.22;;
32347;SDS011;18821;44.800;10.326;2023-04-09T13:45:02;3.70;;;2.83;;
32347;SDS011;18821;44.800;10.326;2023-04-09T13:47:28;3.53;;;2.85;;
32347;SDS011;18821;44.800;10.326;2023-04-09T13:49:54;3.90;;;3.20;;
32347;SDS011;18821;44.800;10.326;2023-04-09T13:52:20;4.82;;;3.05;;
32347;SDS011;18821;44.800;10.326;2023-04-09T13:54:46;3.95;;;2.67;;
32347;SDS011;18821;44.800;10.326;2023-04-09T13:57:13;3.60;;;2.42;;
32347;SDS011;18821;44.800;10.326;2023-04-09T13:59:39;3.05;;;2.38;;
32347;SDS011;18821;44.800;10.326;2023-04-09T14:02:06;3.65;;;2.58;;
32347;SDS011;18821;44.800;10.326;2023-04-09T14:04:33;4.72;;;3.10;;
32347;SDS011;18821;44.800;10.326;2023-04-09T14:06:59;4.45;;;2.65;;
32347;SDS011;18821;44.800;10.326;2023-04-09T14:09:25;2.92;;;2.47;;
32347;SDS011;18821;44.800;10.326;2023-04-09T14:11:51;7.38;;;2.30;;
32347;SDS011;18821;44.800;10.326;2023-04-09T14:14:19;5.43;;;2.78;;
32347;SDS011;18821;44.800;10.326;2023-04-09T14:16:45;6.97;;;2.63;;
32347;SDS011;18821;44.800;10.326;2023-04-09T14:19:12;3.42;;;2.40;;
32347;SDS011;18821;44.800;10.326;2023-04-09T14:21:38;3.42;;;2.30;;
32347;SDS011;18821;44.800;10.326;2023-04-09T14:24:05;3.97;;;2.92;;
32347;SDS011;18821;44.800;10.326;2023-04-09T14:26:31;4.18;;;2.58;;
32347;SDS011;18821;44.800;10.326;2023-04-09T14:28:57;3.28;;;2.67;;
32347;SDS011;18821;44.800;10.326;2023-04-09T14:31:23;2.92;;;2.47;;
32347;SDS011;18821;44.800;10.326;2023-04-09T14:33:49;4.05;;;2.35;;
32347;SDS011;18821;44.800;10.326;2023-04-09T14:36:16;3.47;;;2.40;;
32347;SDS011;18821;44.800;10.326;2023-04-09T14:38:42;3.88;;;2.45;;
32347;SDS011;18821;44.800;10.326;2023-04-09T14:41:08;3.60;;;2.60;;
32347;SDS011;18821;44.800;10.326;2023-04-09T14:43:34;2.40;;;2.05;;
32347;SDS011;18821;44.800;10.326;2023-04-09T14:46:00;2.85;;;2.20;;
32347;SDS011;18821;44.800;10.326;2023-04-09T14:48:25;3.47;;;2.20;;